Star Pride — 9V9351 — position and weather

sailwx.info

Track history (hours):
 
Tides and Currents Weather Stations Pressure Air Temp Water Temp Dewpoint Dewpoint Depression Visibility Wind Speed Wind Dir Waves Ship Positions

Star Pride

Last reported at 2018-Jan-19 00:42 UTC. Time now 2018-Jan-21 16:58 UTC.
Position N 26°43' W 114°38'.

Length 163 m; draft 7.6 m.

Type: Cargo ship. MMSI: 566090000.

Date/timePositionNaut miles runAvg speedWind from/ knotsBaromVisibWave heightAir tempDewpointWater temp
2018-Jan-19 00:42N 26°43' W 114°38'2521.3
2018-Jan-18 23:31N 27°04' W 114°54'121.3
2018-Jan-18 23:27N 27°05' W 114°55'1021.3
2018-Jan-18 23:00N 27°13' W 115°01'1121.5
2018-Jan-18 22:29N 27°22' W 115°08'8120.8
2018-Jan-18 18:36N 28°30' W 115°57'220.9
2018-Jan-18 18:30N 28°32' W 115°58'1120.9
2018-Jan-18 17:59N 28°43' W 116°03'1021.1
2018-Jan-18 17:30N 28°52' W 116°07'1121.1
2018-Jan-18 17:00N 29°02' W 116°11'1121.3
2018-Jan-18 16:29N 29°12' W 116°16'1021.1
2018-Jan-18 15:59N 29°22' W 116°20'15920.8
2018-Jan-18 08:19N 31°50' W 117°27'921.2
2018-Jan-18 07:54N 31°59' W 117°31'1120.7
2018-Jan-18 07:22N 32°09' W 117°36'820.6
2018-Jan-18 07:00N 32°16' W 117°39'1019.6
2018-Jan-18 06:30N 32°25' W 117°43'917.4
2018-Jan-18 06:00N 32°33' W 117°47'1019.2
2018-Jan-18 05:30N 32°42' W 117°50'1120.7
2018-Jan-18 05:00N 32°52' W 117°55'1020.9
2018-Jan-18 04:30N 33°02' W 117°58'1020.7
2018-Jan-18 04:00N 33°11' W 118°03'816.6
2018-Jan-18 03:30N 33°19' W 118°07'713.9
2018-Jan-18 03:00N 33°26' W 118°09'714.1
2018-Jan-18 02:29N 33°33' W 118°12'5 9.8
2018-Jan-18 02:00N 33°38' W 118°12'4 7.9
2018-Jan-18 01:30N 33°41' W 118°11'  
Track history (hours):
 
Tides and Currents Weather Stations Pressure Air Temp Water Temp Dewpoint Dewpoint Depression Visibility Wind Speed Wind Dir Waves Ship Positions

Star Pride

Last reported at 2018-Jan-19 00:42 UTC. Time now 2018-Jan-21 16:58 UTC.
Position N 26°43' W 114°38'.

Length 163 m; draft 7.6 m.

Type: Cargo ship. MMSI: 566090000.

Date/timePositionNaut miles runAvg speedWind from/ knotsBaromVisibWave heightAir tempDewpointWater temp
2018-Jan-19 00:42N 26°43' W 114°38'2521.3
2018-Jan-18 23:31N 27°04' W 114°54'121.3
2018-Jan-18 23:27N 27°05' W 114°55'1021.3
2018-Jan-18 23:00N 27°13' W 115°01'1121.5
2018-Jan-18 22:29N 27°22' W 115°08'8120.8
2018-Jan-18 18:36N 28°30' W 115°57'220.9
2018-Jan-18 18:30N 28°32' W 115°58'1120.9
2018-Jan-18 17:59N 28°43' W 116°03'1021.1
2018-Jan-18 17:30N 28°52' W 116°07'1121.1
2018-Jan-18 17:00N 29°02' W 116°11'1121.3
2018-Jan-18 16:29N 29°12' W 116°16'1021.1
2018-Jan-18 15:59N 29°22' W 116°20'15920.8
2018-Jan-18 08:19N 31°50' W 117°27'921.2
2018-Jan-18 07:54N 31°59' W 117°31'1120.7
2018-Jan-18 07:22N 32°09' W 117°36'820.6
2018-Jan-18 07:00N 32°16' W 117°39'1019.6
2018-Jan-18 06:30N 32°25' W 117°43'917.4
2018-Jan-18 06:00N 32°33' W 117°47'1019.2
2018-Jan-18 05:30N 32°42' W 117°50'1120.7
2018-Jan-18 05:00N 32°52' W 117°55'1020.9
2018-Jan-18 04:30N 33°02' W 117°58'1020.7
2018-Jan-18 04:00N 33°11' W 118°03'816.6
2018-Jan-18 03:30N 33°19' W 118°07'713.9
2018-Jan-18 03:00N 33°26' W 118°09'714.1
2018-Jan-18 02:29N 33°33' W 118°12'5 9.8
2018-Jan-18 02:00N 33°38' W 118°12'4 7.9
2018-Jan-18 01:30N 33°41' W 118°11'  

Dump ship's entire track history